Borkum Airport

EDWR · Nedersaksen, Duitsland

METAR historie EDWR · Borkum Airport

Hieronder zie je METAR's van de afgelopen dagen. Kies een jaar om door oudere METAR's te bladeren, vanaf het jaar 2007.

29 november 2022

Tijd Code Weer Temp. Zicht Plafond Wind METAR/SPECI
12:55
V
10 °C 10 km+ - 020° 020° 11 kt METAR EHMA 291155Z AUTO 02011KT 9999 FEW015 10/07 Q1018
12:25
V
10 °C 10 km+ - 020° 020° 7 kt METAR EHMA 291125Z AUTO 02007KT 9999 FEW010 SCT032 10/08 Q1018
11:55
V
10 °C 10 km+ 3.200 ft 020° 020° 8 kt METAR EHMA 291055Z AUTO 02008KT 9999 FEW010 BKN032 10/08 Q1018
11:25
V
10 °C 10 km+ 3.300 ft 020° 020° 8 kt METAR EHMA 291025Z AUTO 02008KT 9999 FEW010 SCT028 BKN033 10/08 Q1017
10:55
V
10 °C 10 km+ 3.100 ft 020° 020° 7 kt METAR EHMA 290955Z AUTO 02007KT 9999 SCT027 BKN031 OVC038 10/08 Q1017
10:25
V
10 °C 10 km+ 3.900 ft 020° 020° 9 kt METAR EHMA 290925Z AUTO 02009KT 9999 FEW009 SCT028 OVC039 10/08 Q1017
09:55
M
10 °C 10 km+ 2.100 ft 020° 020° 8 kt METAR EHMA 290855Z AUTO 02008KT 9999 FEW005 SCT008 BKN021 10/09 Q1017
09:25
M
10 °C 10 km+ 1.400 ft 360° 360° 8 kt METAR EHMA 290825Z AUTO 36008KT 9999 FEW005 SCT008 BKN014 10/09 Q1016
08:55
M
10 °C 10 km+ 1.700 ft 310° 310° 9 kt METAR EHMA 290755Z AUTO 31009KT 9999 FEW004 SCT009 BKN017 10/10 Q1016
08:25
M
10 °C 10 km+ 1.300 ft 300° 300° 18 kt METAR EHMA 290725Z AUTO 30018KT 9999 FEW005 BKN013 BKN017 10/09 Q1015 REDZ
07:55
M
10 °C 10 km+ 1.500 ft 290° 290° 17 kt METAR EHMA 290655Z AUTO 29017KT 9999 FEW008 SCT012 BKN015 10/09 Q1015
07:25
M
10 °C 10 km+ 1.500 ft 290° 290° 15 kt METAR EHMA 290625Z AUTO 29015KT 9999 FEW008 SCT010 BKN015 10/09 Q1015
06:55
M
10 °C 10 km+ 1.200 ft 280° 280° 12 kt METAR EHMA 290555Z AUTO 28012KT 9999 FEW008 SCT009 BKN012 10/08 Q1015
06:25
M
10 °C 10 km+ 1.400 ft 290° 290° 11 kt METAR EHMA 290525Z AUTO 29011KT 9999 FEW009 SCT010 BKN014 10/08 Q1015
05:55
V
10 °C 10 km+ - 290° 290° 12 kt METAR EHMA 290455Z AUTO 29012KT 9999 FEW009 SCT014 10/08 Q1014
05:25
V
10 °C 10 km+ - 300° 300° 12 kt METAR EHMA 290425Z AUTO 30012KT 9999 FEW009 10/08 Q1014
04:55
V
10 °C 10 km+ - 300° 300° 12 kt METAR EHMA 290355Z AUTO 30012KT 9999 NSC 10/08 Q1014
04:25
V
10 °C 10 km+ - 290° 290° 11 kt METAR EHMA 290325Z AUTO 29011KT 9999 FEW015 10/08 Q1014
03:55
V
10 °C 10 km+ - 310° 310° 12 kt METAR EHMA 290255Z AUTO 31012KT 9999 FEW010 SCT016 10/08 Q1014
03:25
M
10 °C 10 km+ 1.700 ft 310° 310° 8 kt METAR EHMA 290225Z AUTO 31008KT 9999 FEW010 BKN017 10/08 Q1014
02:55
V
9 °C 9 km - 300° 300° 6 kt METAR EHMA 290155Z AUTO 30006KT 9000 SCT016 SCT019 09/08 Q1013
02:25
V
8 °C 8 km - 290° 290° 6 kt METAR EHMA 290125Z AUTO 29006KT 8000 FEW016 SCT034 08/08 Q1013
01:55
M
8 °C 6 km - 290° 290° 6 kt METAR EHMA 290055Z AUTO 29006KT 6000 FEW015 SCT035 08/08 Q1013
01:25
M
8 °C 7 km - 290° 290° 7 kt METAR EHMA 290025Z AUTO 29007KT 7000 FEW038/// 08/07 Q1013
00:55
M
8 °C 7 km - 280° 280° 6 kt METAR EHMA 282355Z AUTO 28006KT 7000 FEW038 08/07 Q1013
00:25
V
8 °C 8 km - 290° 290° 7 kt METAR EHMA 282325Z AUTO 29007KT 8000 FEW017 SCT038 08/07 Q1013

28 november 2022

Tijd Code Weer Temp. Zicht Plafond Wind METAR/SPECI
23:55
V
8 °C 9 km - 280° 280° 8 kt METAR EHMA 282255Z AUTO 28008KT 9000 FEW017 SCT031 08/07 Q1013
23:25
V
8 °C 9 km - 280° 280° 8 kt METAR EHMA 282225Z AUTO 28008KT 9000 FEW017 08/07 Q1012
22:55
V
7 °C 8 km - 250° 250° 8 kt METAR EHMA 282155Z AUTO 25008KT 8000 FEW033 07/07 Q1013
22:25
V
8 °C 8 km - 280° 280° 8 kt METAR EHMA 282125Z AUTO 28008KT 8000 FEW019 08/07 Q1012
21:55
V
8 °C 8 km - 270° 270° 8 kt METAR EHMA 282055Z AUTO 27008KT 8000 SCT049 08/07 Q1012
21:25
V
8 °C 8 km 4.900 ft 250° 250° 8 kt METAR EHMA 282025Z AUTO 25008KT 8000 FEW017 OVC049 08/07 Q1012
20:55
M
8 °C 7 km - 240° 240° 10 kt METAR EHMA 281955Z AUTO 24010KT 7000 FEW017 08/07 Q1012
20:25
I
8 °C 4,1 km 3.500 ft 220° 220° 11 kt METAR EHMA 281925Z AUTO 22011KT 4100 BR FEW000 BKN035 BKN041 08/08 Q1011
19:55
I
8 °C 1,7 km 3.500 ft 210° 210° 9 kt METAR EHMA 281855Z AUTO 21009KT 1700 -RA FEW000 SCT016 BKN035 08/08 Q1011
19:25
I
8 °C 2,2 km 3.700 ft 220° 220° 9 kt METAR EHMA 281825Z AUTO 22009KT 2200 DZ FEW000 SCT016 BKN037 08/08 Q1011
18:55
L
8 °C 1,1 km 4.500 ft 210° 210° 10 kt METAR EHMA 281755Z AUTO 21010KT 1100 BR BKN000 BKN045 08/08 Q1011 REDZ
18:25
L
8 °C 1 km - 210° 210° 8 kt METAR EHMA 281725Z AUTO 21008KT 1000 DZ OVC000 08/08 Q1011
17:55
L
8 °C 400 m - 200° 200° 9 kt METAR EHMA 281655Z AUTO 20009KT 0400 -RA OVC000 08/08 Q1010
17:25
L
8 °C 500 m - 080° 080° 10 kt METAR EHMA 281625Z AUTO 08010KT 0500 -RA VV000 08/08 Q1010
16:55
L
8 °C 400 m - Var Var 13 kt METAR EHMA 281555Z AUTO VRB13KT 0400 -RA VV000 08/08 Q1010
16:25
L
8 °C 350 m - Var Var 12 kt METAR EHMA 281525Z AUTO VRB12KT 0350 -RA VV000 08/08 Q1010
15:55
L
8 °C 300 m - Var Var 11 kt METAR EHMA 281455Z AUTO VRB11KT 0300 -RA VV000 08/08 Q1009
15:25
L
8 °C 400 m - Var Var 12 kt METAR EHMA 281425Z AUTO VRB12KT 0400 -RA VV000 08/08 Q1009 RERA REDZ
14:55
L
8 °C 900 m - 210° 210° 14 kt METAR EHMA 281355Z AUTO 21014KT 150V270 0900 DZ OVC000 08/08 Q1009
14:25
L
8 °C 800 m - 200° 200° 13 kt METAR EHMA 281325Z AUTO 20013KT 0800 DZRA OVC000 08/08 Q1009
13:55
I
9 °C 1,9 km 1.100 ft Var Var 14 kt METAR EHMA 281255Z AUTO VRB14KT 1900 DZRA BKN000 BKN011 BKN013 09/08 Q1008
13:25
I
9 °C 2,2 km 4.000 ft Var Var 16 kt METAR EHMA 281225Z AUTO VRB16KT 2200 -DZ SCT000 SCT015 BKN040 09/08 Q1008
12:55
I
9 °C 4 km 4.400 ft 210° 210° 15 kt METAR EHMA 281155Z AUTO 21015KT 160V270 4000 -DZ FEW002 SCT037 BKN044 09/08 Q1008
12:25
I
9 °C 3,4 km 3.700 ft Var Var 13 kt METAR EHMA 281125Z AUTO VRB13KT 3400 -RA FEW001 FEW015CB SCT025 BKN037 09/09 Q1008 RERA REDZ
11:55
I
9 °C 4,9 km 500 ft 230° 230° 11 kt METAR EHMA 281055Z AUTO 23011KT 4900 -RA FEW001 SCT002 BKN005 09/08 Q1008 RERA REDZ
11:25
L
9 °C 2,2 km 200 ft 210° 210° 14 kt METAR EHMA 281025Z AUTO 21014KT 2200 -RA FEW001 BKN002 BKN005 09/08 Q1008
10:55
L
8 °C 1,9 km 300 ft Var Var 20 kt METAR EHMA 280955Z AUTO VRB20KT 1900 -SHRA SCT000 SCT001 BKN003 08/08 Q1007 REDZ
10:25
L
8 °C 1,9 km 200 ft 200° 200° 17 kt METAR EHMA 280925Z AUTO 20017KT 140V260 1900 +DZ BKN000 BKN002 OVC003 08/08 Q1007
09:55
L
8 °C 2 km 200 ft 200° 200° 17 kt METAR EHMA 280855Z AUTO 20017KT 2000 DZ SCT000 OVC002 08/07 Q1007
09:25
L
8 °C 5 km 100 ft 190° 190° 16 kt METAR EHMA 280825Z AUTO 19016KT 5000 BR BKN001 OVC002 08/07 Q1007
08:55
L
7 °C 4,6 km 100 ft 180° 180° 12 kt METAR EHMA 280755Z AUTO 18012KT 4600 BR FEW000 BKN001 BKN004 07/07 Q1007
08:25
L
7 °C 4 km 200 ft 190° 190° 13 kt METAR EHMA 280725Z AUTO 19013KT 4000 BR BKN000 OVC002 07/07 Q1007
07:55
I
7 °C 2 km - 200° 200° 15 kt METAR EHMA 280655Z AUTO 20015KT 2000 BR OVC000 07/07 Q1007
07:25
L
7 °C 2,8 km 100 ft 200° 200° 14 kt METAR EHMA 280625Z AUTO 20014KT 2800 BR BKN001 OVC002 07/07 Q1007
06:55
L
7 °C 2,6 km 200 ft 200° 200° 14 kt METAR EHMA 280555Z AUTO 20014KT 2600 -DZ SCT001 BKN002 OVC003 07/07 Q1007 REDZ
06:25
L
7 °C 2,4 km 300 ft 190° 190° 15 kt METAR EHMA 280525Z AUTO 19015KT 2400 +DZ FEW001 BKN003 OVC004 07/06 Q1007
05:55
L
7 °C 2,8 km 300 ft 190° 190° 16 kt METAR EHMA 280455Z AUTO 19016KT 2800 -RA FEW001 SCT002 OVC003 07/06 Q1007
05:25
L
6 °C 2,2 km 200 ft 180° 180° 14 kt METAR EHMA 280425Z AUTO 18014KT 2200 -UP SCT001 BKN002 OVC004 06/06 Q1006
04:55
L
6 °C 1,9 km 200 ft 170° 170° 13 kt METAR EHMA 280355Z AUTO 17013KT 1900 -RA FEW001 BKN002 OVC003 06/06 Q1007
04:25
L
6 °C 1,8 km 200 ft 170° 170° 14 kt METAR EHMA 280325Z AUTO 17014KT 1800 -RA SCT001 BKN002 OVC003 06/06 Q1007
03:55
L
6 °C 2 km 400 ft 170° 170° 15 kt METAR EHMA 280255Z AUTO 17015KT 2000 -RA FEW001 SCT003 BKN004 06/06 Q1007 RERA REDZ
03:25
L
6 °C 2,6 km 400 ft 140° 140° 16 kt METAR EHMA 280225Z AUTO 14016KT 2600 -RA SCT002 BKN004 BKN005 06/06 Q1007 RERA REDZ
02:55
I
6 °C 3,3 km 500 ft 140° 140° 17 kt METAR EHMA 280155Z AUTO 14017KT 3300 -RA FEW001 SCT004 BKN005 06/05 Q1008
02:25
I
6 °C 3,4 km 600 ft 140° 140° 17 kt METAR EHMA 280125Z AUTO 14017KT 3400 -RA FEW001 SCT004 BKN006 06/06 Q1008
01:55
I
6 °C 5 km 900 ft 140° 140° 16 kt METAR EHMA 280055Z AUTO 14016KT 5000 -RA FEW003 SCT008 BKN009 06/06 Q1008 RERA REDZ
01:25
I
6 °C 6 km 900 ft 140° 140° 16 kt METAR EHMA 280025Z AUTO 14016KT 6000 -RA FEW004/// SCT008/// BKN009/// 06/05 Q1009
00:55
M
6 °C 6 km 1.000 ft 140° 140° 17 kt METAR EHMA 272355Z AUTO 14017KT 6000 -SHRA FEW004 SCT008 BKN010 FEW015CB 06/06 Q1009
00:25
I
6 °C 4,7 km 900 ft 140° 140° 17 kt METAR EHMA 272325Z AUTO 14017KT 4700 -RA FEW004 SCT005 BKN009 FEW015CB 06/06 Q1009

27 november 2022

Tijd Code Weer Temp. Zicht Plafond Wind METAR/SPECI
23:55
I
6 °C 4,6 km 900 ft 140° 140° 18 kt METAR EHMA 272255Z AUTO 14018KT 4600 -SHRA FEW003 SCT006 BKN009 FEW015CB 06/06 Q1010
23:25
I
6 °C 5 km 900 ft 140° 140° 18 kt METAR EHMA 272225Z AUTO 14018KT 5000 -RA FEW003 SCT004 BKN009 FEW015CB 06/06 Q1010
22:55
M
6 °C 7 km 1.000 ft 130° 130° 18 kt METAR EHMA 272155Z AUTO 13018KT 7000 DZRA FEW004 BKN010 BKN015 06/06 Q1010
22:25
M
6 °C 6 km 1.000 ft 130° 130° 17 kt METAR EHMA 272125Z AUTO 13017KT 6000 -RA FEW008 BKN010 BKN015 06/06 Q1011
21:55
M
6 °C 8 km 1.200 ft 130° 130° 17 kt METAR EHMA 272055Z AUTO 13017KT 8000 DZRA FEW008 SCT010 BKN012 06/05 Q1011
21:25
M
7 °C 8 km 1.500 ft 140° 140° 16 kt METAR EHMA 272025Z AUTO 14016KT 8000 DZRA FEW010 SCT013 OVC015 07/05 Q1012
20:55
M
7 °C 9 km 1.500 ft 130° 130° 16 kt METAR EHMA 271955Z AUTO 13016KT 9000 -RA FEW013 BKN015 OVC018 07/05 Q1012 RERA REDZ
20:25
M
7 °C 10 km+ 1.600 ft 130° 130° 16 kt METAR EHMA 271925Z AUTO 13016KT 9999 -RADZ FEW013 OVC016 07/05 Q1012
19:55
M
7 °C 10 km+ 1.500 ft 130° 130° 17 kt METAR EHMA 271855Z AUTO 13017KT 9999 -DZ SCT013 OVC015 07/05 Q1013
19:25
M
6 °C 10 km+ 1.500 ft 130° 130° 17 kt METAR EHMA 271825Z AUTO 13017KT 9999 SCT012 OVC015 06/05 Q1013
18:55
M
6 °C 10 km+ 1.400 ft 140° 140° 16 kt METAR EHMA 271755Z AUTO 14016KT 9999 SCT012 BKN014 OVC016 06/05 Q1013
18:25
M
7 °C 10 km+ 1.200 ft 140° 140° 17 kt METAR EHMA 271725Z AUTO 14017KT 9999 BKN012 OVC016 07/05 Q1014
17:55
M
7 °C 10 km+ 1.200 ft 170° 170° 18 kt METAR EHMA 271655Z AUTO 17018KT 9999 BKN012 OVC014 07/05 Q1014
17:25
M
6 °C 10 km+ 1.200 ft 170° 170° 17 kt METAR EHMA 271625Z AUTO 17017KT 9999 -RA BKN012 OVC014 06/05 Q1014
16:55
M
7 °C 10 km+ 1.200 ft 170° 170° 18 kt METAR EHMA 271555Z AUTO 17018KT 9999 OVC012 07/05 Q1014
16:25
M
7 °C 9 km 1.200 ft 170° 170° 18 kt METAR EHMA 271525Z AUTO 17018KT 9000 DZRA FEW010 OVC012 07/05 Q1015
15:55
I
7 °C 10 km+ 900 ft 180° 180° 19 kt METAR EHMA 271455Z AUTO 18019KT 9999 -RA SCT008 BKN009 OVC011 07/05 Q1015 RERA REDZ
15:25
I
7 °C 9 km 800 ft 180° 180° 21 kt METAR EHMA 271425Z AUTO 18021KT 9000 -DZ BKN008 OVC009 07/05 Q1015 REDZ
14:55
I
7 °C 10 km+ 800 ft 190° 190° 22 kt METAR EHMA 271355Z AUTO 19022KT 9999 -DZ BKN008 OVC009 07/05 Q1015
14:25
M
7 °C 10 km+ 1.000 ft 190° 190° 21 kt METAR EHMA 271325Z AUTO 19021KT 9999 FEW007 SCT008 OVC010 07/05 Q1016
13:55
M
7 °C 10 km+ 1.000 ft 180° 180° 22 kt METAR EHMA 271255Z AUTO 18022KT 9999 FEW007 OVC010 07/05 Q1016
13:25
I
7 °C 4,9 km 1.000 ft 180° 180° 21 kt METAR EHMA 271225Z AUTO 18021KT 4900 -UP FEW009 OVC010 07/05 Q1016 REDZUP
12:55
M
7 °C 10 km+ 1.200 ft 180° 180° 21 kt METAR EHMA 271155Z AUTO 18021KT 9999 SCT010 BKN012 OVC015 07/05 Q1017
12:25
M
6 °C 10 km+ 1.500 ft 180° 180° 22 kt METAR EHMA 271125Z AUTO 18022KT 9999 -RA FEW012 BKN015 OVC018 06/05 Q1017
11:55
M
6 °C 9 km 2.500 ft 180° 180° 23 kt METAR EHMA 271055Z AUTO 18023KT 9000 -RA FEW016 SCT021 BKN025 06/04 Q1018 RERA REDZ
11:25
M
6 °C 10 km+ 2.900 ft 180° 180° 22 kt METAR EHMA 271025Z AUTO 18022KT 9999 SCT025 BKN029 OVC032 06/04 Q1018 REDZ
10:55
V
7 °C 10 km+ 3.800 ft 180° 180° 22 kt METAR EHMA 270955Z AUTO 18022KT 9999 -RA SCT026 SCT031 BKN038 07/04 Q1018 RERA REDZ

Wij en derden volgen je internetgedrag op onze website met cookies. Als je doorgaat, gaan we ervan uit dat je akkoord gaat met onze cookiebeleid.